Time;durP1;ratioP1;P1;durP2;ratioP2;P2;SDS_P1;SDS_P2;PMS_P1;PMS_P2;Temp;Humidity;BMP_temperature;BMP_pressure;BME280_temperature;BME280_humidity;BME280_pressure;Samples;Min_cycle;Max_cycle;Signal;HPM_P1;HPM_P2
2021/08/15 00:01:31;;;;;;;;;;;;;;;;;;10282995;28;20019;-68
2021/08/15 00:06:28;;;;;;;;;;;;;;;;;;10277206;28;20731;-69
2021/08/15 00:11:25;;;;;;;;;;;;;;;;;;10282251;28;19936;-70
2021/08/15 00:16:23;;;;;;;;;;;;;;;;;;10275643;28;20278;-68
2021/08/15 00:21:20;;;;;;;;;;;;;;;;;;10293803;28;20003;-68
2021/08/15 00:26:17;;;;;;;;;;;;;;;;;;10282811;28;20115;-68
2021/08/15 00:31:14;;;;;;;;;;;;;;;;;;10285083;28;20348;-69
2021/08/15 00:36:12;;;;;;;;;;;;;;;;;;10287521;28;20419;-68
2021/08/15 00:41:09;;;;;;;;;;;;;;;;;;10284608;28;19925;-66
2021/08/15 00:46:06;;;;;;;;;;;;;;;;;;10271065;28;19956;-69
2021/08/15 00:51:04;;;;;;;;;;;;;;;;;;10297207;28;20299;-70
2021/08/15 00:56:01;;;;;;;;;;;;;;;;;;10285729;28;20016;-69
2021/08/15 01:00:58;;;;;;;;;;;;;;;;;;10288722;28;20302;-69
2021/08/15 01:05:55;;;;;;;;;;;;;;;;;;10272244;28;19959;-68
2021/08/15 01:10:53;;;;;;;;;;;;;;;;;;10286523;28;20348;-69
2021/08/15 01:15:51;;;;;;;;;;;;;;;;;;10295366;28;19917;-69
2021/08/15 01:20:48;;;;;;;;;;;;;;;;;;10281577;28;19983;-70
2021/08/15 01:25:45;;;;;;;;;;;;;;;;;;10281213;28;19917;-68
2021/08/15 01:30:43;;;;;;;;;;;;;;;;;;10276587;28;19921;-69
2021/08/15 01:35:40;;;;;;;;;;;;;;;;;;10288099;28;19925;-69
2021/08/15 01:40:37;;;;;;;;;;;;;;;;;;10287481;28;19972;-67
2021/08/15 01:45:34;;;;;;;;;;;;;;;;;;10294630;28;19917;-67
2021/08/15 01:50:32;;;;;;;;;;;;;;;;;;10278732;28;20335;-68
2021/08/15 01:55:29;;;;;;;;;;;;;;;;;;10292510;28;19932;-66
2021/08/15 02:00:26;;;;;;;;;;;;;;;;;;10309550;28;19921;-67
2021/08/15 02:05:23;;;;;;;;;;;;;;;;;;10303739;28;20442;-67
2021/08/15 02:10:21;;;;;;;;;;;;;;;;;;10285982;28;19924;-69
2021/08/15 02:15:18;;;;;;;;;;;;;;;;;;10282751;28;19924;-68
2021/08/15 02:20:16;;;;;;;;;;;;;;;;;;10277851;28;20383;-68
2021/08/15 02:25:13;;;;;;;;;;;;;;;;;;10266843;28;19999;-66
2021/08/15 02:30:10;;;;;;;;;;;;;;;;;;10278803;28;19922;-70
2021/08/15 02:35:07;;;;;;;;;;;;;;;;;;10303318;28;19913;-68
2021/08/15 02:40:05;;;;;;;;;;;;;;;;;;10265808;28;19917;-66
2021/08/15 02:45:02;;;;;;;;;;;;;;;;;;10275727;28;19914;-66
2021/08/15 02:49:59;;;;;;;;;;;;;;;;;;10300103;28;19913;-66
2021/08/15 02:54:56;;;;;;;;;;;;;;;;;;10289545;28;19936;-68
2021/08/15 02:59:54;;;;;;;;;;;;;;;;;;10277434;28;20391;-69
2021/08/15 03:04:51;;;;;;;;;;;;;;;;;;10293225;28;19924;-68
2021/08/15 03:09:48;;;;;;;;;;;;;;;;;;10294376;28;20442;-69
2021/08/15 03:14:46;;;;;;;;;;;;;;;;;;10277608;28;20016;-68
2021/08/15 03:19:43;;;;;;;;;;;;;;;;;;10282629;28;20042;-68
2021/08/15 03:24:40;;;;;;;;;;;;;;;;;;10295033;28;19917;-69
2021/08/15 03:29:37;;;;;;;;;;;;;;;;;;10269403;28;20530;-67
2021/08/15 03:34:35;;;;;;;;;;;;;;;;;;10295451;28;19917;-68
2021/08/15 03:39:32;;;;;;;;;;;;;;;;;;10256119;28;19925;-67
2021/08/15 03:44:30;;;;;;;;;;;;;;;;;;10298944;28;19929;-68
2021/08/15 03:49:27;;;;;;;;;;;;;;;;;;10278496;28;21792;-68
2021/08/15 03:54:24;;;;;;;;;;;;;;;;;;10295040;28;19921;-68
2021/08/15 03:59:22;;;;;;;;;;;;;;;;;;10305221;28;19924;-68
2021/08/15 04:04:19;;;;;;;;;;;;;;;;;;10298186;28;19917;-69
2021/08/15 04:09:16;;;;;;;;;;;;;;;;;;10292809;28;19943;-68
2021/08/15 04:14:13;;;;;;;;;;;;;;;;;;10286949;28;20038;-68
2021/08/15 04:19:11;;;;;;;;;;;;;;;;;;10282999;28;19917;-68
2021/08/15 04:24:08;;;;;;;;;;;;;;;;;;10305160;28;19921;-68
2021/08/15 04:29:06;;;;;;;;;;;;;;;;;;10286003;28;19967;-69
2021/08/15 04:34:03;;;;;;;;;;;;;;;;;;10299528;28;19925;-69
2021/08/15 04:39:00;;;;;;;;;;;;;;;;;;10286201;28;20454;-69
2021/08/15 04:43:58;;;;;;;;;;;;;;;;;;10297534;28;20024;-66
2021/08/15 04:48:55;;;;;;;;;;;;;;;;;;10299090;28;20374;-66
2021/08/15 04:53:52;;;;;;;;;;;;;;;;;;10311993;28;19924;-70
2021/08/15 04:58:49;;;;;;;;;;;;;;;;;;10304969;28;19999;-67
2021/08/15 05:03:49;;;;;;;;;;;;;;;;;;10299385;28;19921;-65
2021/08/15 05:08:47;;;;;;;;;;;;;;;;;;10309640;28;20653;-68
2021/08/15 05:13:44;;;;;;;;;;;;;;;;;;10303309;28;20016;-69
2021/08/15 05:18:42;;;;;;;;;;;;;;;;;;10299763;28;19924;-69
2021/08/15 05:23:39;;;;;;;;;;;;;;;;;;10300957;28;20015;-68
2021/08/15 05:28:36;;;;;;;;;;;;;;;;;;10313263;28;19917;-69
2021/08/15 05:33:33;;;;;;;;;;;;;;;;;;10308521;28;19917;-69
2021/08/15 05:38:31;;;;;;;;;;;;;;;;;;10316898;28;19936;-68
2021/08/15 05:43:28;;;;;;;;;;;;;;;;;;10300901;28;21417;-67
2021/08/15 05:48:25;;;;;;;;;;;;;;;;;;10314598;28;19917;-68
2021/08/15 05:53:23;;;;;;;;;;;;;;;;;;10308028;28;19978;-67
2021/08/15 05:58:20;;;;;;;;;;;;;;;;;;10306405;28;19937;-67
2021/08/15 06:03:17;;;;;;;;;;;;;;;;;;10310906;28;19925;-68
2021/08/15 06:08:16;;;;;;;;;;;;;;;;;;10303595;28;20020;-67
2021/08/15 06:13:15;;;;;;;;;;;;;;;;;;10302222;28;19921;-68
2021/08/15 06:18:13;;;;;;;;;;;;;;;;;;10317137;28;19921;-67
2021/08/15 06:23:10;;;;;;;;;;;;;;;;;;10294062;28;19921;-69
2021/08/15 06:28:08;;;;;;;;;;;;;;;;;;10288857;28;19943;-68
2021/08/15 06:33:06;;;;;;;;;;;;;;;;;;10287714;28;19928;-68
2021/08/15 06:38:03;;;;;;;;;;;;;;;;;;10279232;28;20240;-68
2021/08/15 06:43:00;;;;;;;;;;;;;;;;;;10312166;28;19921;-69
2021/08/15 06:47:57;;;;;;;;;;;;;;;;;;10291389;28;19917;-68
2021/08/15 06:52:57;;;;;;;;;;;;;;;;;;10286802;28;20075;-68
2021/08/15 06:57:54;;;;;;;;;;;;;;;;;;10300492;28;20345;-68
2021/08/15 07:02:51;;;;;;;;;;;;;;;;;;10303369;28;20601;-68
2021/08/15 07:07:49;;;;;;;;;;;;;;;;;;10302028;28;19917;-67
2021/08/15 07:12:52;;;;;;;;;;;;;;;;;;10279901;28;19940;-68
2021/08/15 07:17:49;;;;;;;;;;;;;;;;;;10300652;28;20012;-68
2021/08/15 07:22:47;;;;;;;;;;;;;;;;;;10295821;28;20003;-68
2021/08/15 07:27:45;;;;;;;;;;;;;;;;;;10295325;28;19917;-67
2021/08/15 07:32:42;;;;;;;;;;;;;;;;;;10282856;28;19944;-66
2021/08/15 07:37:39;;;;;;;;;;;;;;;;;;10289880;28;19917;-70
2021/08/15 07:42:36;;;;;;;;;;;;;;;;;;10266556;28;19921;-69
2021/08/15 07:47:33;;;;;;;;;;;;;;;;;;10281554;28;19921;-68
2021/08/15 07:52:31;;;;;;;;;;;;;;;;;;10285257;28;20016;-68
2021/08/15 07:57:30;;;;;;;;;;;;;;;;;;10287557;28;20406;-68
2021/08/15 08:02:28;;;;;;;;;;;;;;;;;;10259889;28;19929;-68
2021/08/15 08:07:25;;;;;;;;;;;;;;;;;;10279387;28;20421;-68
2021/08/15 08:12:22;;;;;;;;;;;;;;;;;;10284841;28;20183;-69
2021/08/15 08:17:20;;;;;;;;;;;;;;;;;;10288129;28;19960;-69
2021/08/15 08:22:17;;;;;;;;;;;;;;;;;;10291756;28;19921;-68
2021/08/15 08:27:14;;;;;;;;;;;;;;;;;;10288707;28;20020;-69
2021/08/15 08:32:11;;;;;;;;;;;;;;;;;;10279294;28;19924;-69
2021/08/15 08:37:09;;;;;;;;;;;;;;;;;;10287147;28;20378;-68
2021/08/15 08:42:06;;;;;;;;;;;;;;;;;;10277873;28;19967;-68
2021/08/15 08:47:03;;;;;;;;;;;;;;;;;;10275784;28;19995;-69
2021/08/15 08:52:01;;;;;;;;;;;;;;;;;;10283322;28;19921;-69
2021/08/15 08:56:58;;;;;;;;;;;;;;;;;;10284464;28;20426;-67
2021/08/15 09:01:55;;;;;;;;;;;;;;;;;;10262255;28;19972;-69
2021/08/15 09:06:52;;;;;;;;;;;;;;;;;;10281300;28;19971;-69
2021/08/15 09:11:50;;;;;;;;;;;;;;;;;;10295994;28;19917;-70
2021/08/15 09:16:47;;;;;;;;;;;;;;;;;;10271141;28;19925;-69
2021/08/15 09:21:44;;;;;;;;;;;;;;;;;;10289805;28;20019;-69
2021/08/15 09:26:41;;;;;;;;;;;;;;;;;;10281543;28;19917;-69
2021/08/15 09:31:39;;;;;;;;;;;;;;;;;;10271644;28;20906;-69
2021/08/15 09:36:36;;;;;;;;;;;;;;;;;;10273983;28;20007;-69
2021/08/15 09:41:33;;;;;;;;;;;;;;;;;;10245817;28;21470;-68
2021/08/15 09:46:31;;;;;;;;;;;;;;;;;;10276357;28;20342;-68
2021/08/15 09:51:28;;;;;;;;;;;;;;;;;;10285051;28;20409;-69
2021/08/15 09:56:28;;;;;;;;;;;;;;;;;;10285133;22;19943;-65
2021/08/15 10:01:25;;;;;;;;;;;;;;;;;;10294839;28;20321;-65
2021/08/15 10:06:22;;;;;;;;;;;;;;;;;;10270907;28;19921;-65
2021/08/15 10:11:20;;;;;;;;;;;;;;;;;;10278354;28;20377;-65
2021/08/15 10:16:18;;;;;;;;;;;;;;;;;;10267337;28;19925;-65
2021/08/15 10:21:15;;;;;;;;;;;;;;;;;;10278906;28;19976;-65
2021/08/15 10:26:13;;;;;;;;;;;;;;;;;;10294725;28;19948;-66
2021/08/15 10:31:11;;;;;;;;;;;;;;;;;;10291373;28;20500;-66
2021/08/15 10:36:08;;;;;;;;;;;;;;;;;;10286349;28;20371;-65
2021/08/15 10:41:05;;;;;;;;;;;;;;;;;;10288808;28;19952;-67
2021/08/15 10:46:03;;;;;;;;;;;;;;;;;;10281507;28;19918;-67
2021/08/15 10:51:00;;;;;;;;;;;;;;;;;;10287590;28;19920;-67
2021/08/15 10:55:57;;;;;;;;;;;;;;;;;;10285604;28;20015;-68
2021/08/15 11:00:55;;;;;;;;;;;;;;;;;;10290418;28;20397;-67
2021/08/15 11:05:52;;;;;;;;;;;;;;;;;;10269253;28;19921;-67
2021/08/15 11:10:49;;;;;;;;;;;;;;;;;;10288011;28;19940;-67
2021/08/15 11:15:46;;;;;;;;;;;;;;;;;;10288021;28;20305;-67
2021/08/15 11:20:47;;;;;;;;;;;;;;;;;;10289869;28;19975;-68
2021/08/15 11:25:45;;;;;;;;;;;;;;;;;;10274101;28;19917;-68
2021/08/15 11:30:42;;;;;;;;;;;;;;;;;;10283260;28;19921;-67
2021/08/15 11:35:43;;;;;;;;;;;;;;;;;;10288965;28;19917;-67
2021/08/15 11:40:42;;;;;;;;;;;;;;;;;;10292839;28;19974;-68
2021/08/15 11:45:40;;;;;;;;;;;;;;;;;;10280302;28;20355;-68
2021/08/15 11:50:37;;;;;;;;;;;;;;;;;;10279381;28;20337;-67
2021/08/15 11:55:34;;;;;;;;;;;;;;;;;;10279633;28;19924;-68
2021/08/15 12:00:32;;;;;;;;;;;;;;;;;;10283248;28;19917;-68
2021/08/15 12:05:29;;;;;;;;;;;;;;;;;;10277007;28;19921;-68
2021/08/15 12:10:29;;;;;;;;;;;;;;;;;;10282202;28;20875;-67
2021/08/15 12:15:27;;;;;;;;;;;;;;;;;;10296026;28;19967;-68
2021/08/15 12:20:24;;;;;;;;;;;;;;;;;;10294782;28;19917;-68
2021/08/15 12:25:23;;;;;;;;;;;;;;;;;;10287790;28;19921;-68
2021/08/15 12:30:20;;;;;;;;;;;;;;;;;;10284064;28;20332;-72
2021/08/15 12:35:17;;;;;;;;;;;;;;;;;;10294842;28;19974;-68
2021/08/15 12:40:15;;;;;;;;;;;;;;;;;;10289865;28;19921;-69
2021/08/15 12:45:12;;;;;;;;;;;;;;;;;;10290972;28;20008;-69
2021/08/15 12:50:09;;;;;;;;;;;;;;;;;;10280036;28;20607;-68
2021/08/15 12:55:07;;;;;;;;;;;;;;;;;;10283286;28;19987;-69
2021/08/15 13:00:04;;;;;;;;;;;;;;;;;;10255346;28;19921;-69
2021/08/15 13:05:01;;;;;;;;;;;;;;;;;;10279494;28;20612;-68
2021/08/15 13:09:59;;;;;;;;;;;;;;;;;;10269235;28;19945;-69
2021/08/15 13:14:56;;;;;;;;;;;;;;;;;;10281215;28;19917;-68
2021/08/15 13:19:54;;;;;;;;;;;;;;;;;;10289205;28;19924;-68
2021/08/15 13:24:51;;;;;;;;;;;;;;;;;;10280672;28;20296;-69
2021/08/15 13:29:48;;;;;;;;;;;;;;;;;;10279669;28;19917;-69
2021/08/15 13:34:46;;;;;;;;;;;;;;;;;;10287187;28;19925;-69
2021/08/15 13:39:43;;;;;;;;;;;;;;;;;;10305443;28;19929;-69
2021/08/15 13:44:41;;;;;;;;;;;;;;;;;;10299352;28;19921;-69
2021/08/15 13:49:38;;;;;;;;;;;;;;;;;;10302749;28;19924;-69
2021/08/15 13:54:35;;;;;;;;;;;;;;;;;;10281594;28;19925;-69
2021/08/15 13:59:32;;;;;;;;;;;;;;;;;;10300010;28;19927;-69
2021/08/15 14:04:31;;;;;;;;;;;;;;;;;;10302733;28;19921;-69
2021/08/15 14:09:28;;;;;;;;;;;;;;;;;;10291525;28;19932;-69
2021/08/15 14:14:28;;;;;;;;;;;;;;;;;;10280468;28;20382;-70
2021/08/15 14:19:26;;;;;;;;;;;;;;;;;;10286332;28;19952;-68
2021/08/15 14:24:23;;;;;;;;;;;;;;;;;;10271408;28;19932;-69
2021/08/15 14:29:20;;;;;;;;;;;;;;;;;;10287745;28;19950;-69
2021/08/15 14:34:18;;;;;;;;;;;;;;;;;;10266615;28;19934;-69
2021/08/15 14:39:15;;;;;;;;;;;;;;;;;;10284481;28;19917;-69
2021/08/15 14:44:12;;;;;;;;;;;;;;;;;;10276001;28;20019;-69
2021/08/15 14:49:14;;;;;;;;;;;;;;;;;;10280165;28;20409;-69
2021/08/15 14:54:11;;;;;;;;;;;;;;;;;;10287736;28;19921;-69
2021/08/15 14:59:09;;;;;;;;;;;;;;;;;;10282108;28;19925;-69
2021/08/15 15:04:06;;;;;;;;;;;;;;;;;;10287624;28;20043;-68
2021/08/15 15:09:03;;;;;;;;;;;;;;;;;;10279961;28;20398;-69
2021/08/15 15:14:01;;;;;;;;;;;;;;;;;;10275449;28;19917;-69
2021/08/15 15:18:58;;;;;;;;;;;;;;;;;;10287909;28;19944;-69
2021/08/15 15:23:56;;;;;;;;;;;;;;;;;;10281615;28;20229;-69
2021/08/15 15:28:53;;;;;;;;;;;;;;;;;;10272924;28;20315;-69
2021/08/15 15:33:50;;;;;;;;;;;;;;;;;;10272005;28;20062;-69
2021/08/15 15:38:47;;;;;;;;;;;;;;;;;;10303532;28;20024;-69
2021/08/15 15:43:45;;;;;;;;;;;;;;;;;;10273609;28;19971;-68
2021/08/15 15:48:42;;;;;;;;;;;;;;;;;;10288383;28;20649;-68
2021/08/15 15:53:40;;;;;;;;;;;;;;;;;;10300325;28;20107;-68
2021/08/15 15:58:37;;;;;;;;;;;;;;;;;;10294783;28;19928;-69
2021/08/15 16:03:35;;;;;;;;;;;;;;;;;;10298947;28;19929;-68
2021/08/15 16:08:32;;;;;;;;;;;;;;;;;;10292441;28;19917;-69
2021/08/15 16:13:29;;;;;;;;;;;;;;;;;;10303842;28;20489;-68
2021/08/15 16:18:27;;;;;;;;;;;;;;;;;;10300940;28;20323;-69
2021/08/15 16:23:25;;;;;;;;;;;;;;;;;;10282936;28;19975;-69
2021/08/15 16:28:22;;;;;;;;;;;;;;;;;;10294050;28;19978;-68
2021/08/15 16:33:19;;;;;;;;;;;;;;;;;;10300210;28;19970;-68
2021/08/15 16:38:17;;;;;;;;;;;;;;;;;;10304330;28;19921;-69
2021/08/15 16:43:14;;;;;;;;;;;;;;;;;;10293353;28;19994;-68
2021/08/15 16:48:12;;;;;;;;;;;;;;;;;;10292514;28;19917;-68
2021/08/15 16:53:09;;;;;;;;;;;;;;;;;;10297269;28;20410;-68
2021/08/15 16:58:06;;;;;;;;;;;;;;;;;;10292586;28;19929;-68
2021/08/15 17:03:03;;;;;;;;;;;;;;;;;;10286840;28;19921;-68
2021/08/15 17:08:01;;;;;;;;;;;;;;;;;;10308038;28;19971;-68
2021/08/15 17:12:58;;;;;;;;;;;;;;;;;;10297779;28;20295;-68
2021/08/15 17:17:55;;;;;;;;;;;;;;;;;;10305694;28;19917;-68
2021/08/15 17:22:53;;;;;;;;;;;;;;;;;;10294581;28;19927;-68
2021/08/15 17:27:50;;;;;;;;;;;;;;;;;;10296259;28;19931;-68
2021/08/15 17:32:51;;;;;;;;;;;;;;;;;;10297070;28;19917;-68
2021/08/15 17:37:49;;;;;;;;;;;;;;;;;;10292512;28;19917;-68
2021/08/15 17:42:46;;;;;;;;;;;;;;;;;;10299897;28;19925;-68
2021/08/15 17:47:43;;;;;;;;;;;;;;;;;;10305478;28;20006;-69
2021/08/15 17:52:41;;;;;;;;;;;;;;;;;;10288133;28;19924;-67
2021/08/15 17:57:38;;;;;;;;;;;;;;;;;;10274531;28;19925;-68
2021/08/15 18:02:35;;;;;;;;;;;;;;;;;;10293583;28;20371;-68
2021/08/15 18:07:32;;;;;;;;;;;;;;;;;;10299941;28;19967;-68
2021/08/15 18:12:30;;;;;;;;;;;;;;;;;;10293646;28;19925;-68
2021/08/15 18:17:27;;;;;;;;;;;;;;;;;;10293893;28;19964;-68
2021/08/15 18:22:24;;;;;;;;;;;;;;;;;;10291926;28;19948;-69
2021/08/15 18:27:23;;;;;;;;;;;;;;;;;;10283619;28;19917;-68
2021/08/15 18:32:22;;;;;;;;;;;;;;;;;;10286325;28;20011;-68
2021/08/15 18:37:20;;;;;;;;;;;;;;;;;;10287285;28;19921;-68
2021/08/15 18:42:17;;;;;;;;;;;;;;;;;;10291984;28;19948;-68
2021/08/15 18:47:14;;;;;;;;;;;;;;;;;;10288172;28;19925;-67
2021/08/15 18:52:11;;;;;;;;;;;;;;;;;;10289289;28;19928;-68
2021/08/15 18:57:09;;;;;;;;;;;;;;;;;;10291169;28;19952;-68
2021/08/15 19:02:06;;;;;;;;;;;;;;;;;;10294733;28;19921;-67
2021/08/15 19:07:03;;;;;;;;;;;;;;;;;;10291453;28;19920;-68
2021/08/15 19:12:01;;;;;;;;;;;;;;;;;;10276834;28;19924;-67
2021/08/15 19:16:58;;;;;;;;;;;;;;;;;;10283183;28;19917;-67
2021/08/15 19:21:55;;;;;;;;;;;;;;;;;;10294665;28;19927;-67
2021/08/15 19:26:54;;;;;;;;;;;;;;;;;;10301678;28;20446;-67
2021/08/15 19:31:51;;;;;;;;;;;;;;;;;;10300196;28;19921;-67
2021/08/15 19:36:49;;;;;;;;;;;;;;;;;;10290998;28;19921;-67
2021/08/15 19:41:46;;;;;;;;;;;;;;;;;;10286310;28;19962;-67
2021/08/15 19:46:43;;;;;;;;;;;;;;;;;;10296674;28;19921;-67
2021/08/15 19:51:40;;;;;;;;;;;;;;;;;;10297779;28;20327;-67
2021/08/15 19:56:38;;;;;;;;;;;;;;;;;;10297524;28;19917;-67
2021/08/15 20:01:36;;;;;;;;;;;;;;;;;;10288661;28;19990;-67
2021/08/15 20:06:33;;;;;;;;;;;;;;;;;;10308312;28;19970;-67
2021/08/15 20:11:30;;;;;;;;;;;;;;;;;;10300677;28;20327;-67
2021/08/15 20:16:28;;;;;;;;;;;;;;;;;;10304207;28;19924;-67
2021/08/15 20:21:25;;;;;;;;;;;;;;;;;;10299624;28;22265;-67
2021/08/15 20:26:22;;;;;;;;;;;;;;;;;;10284995;28;19925;-67
2021/08/15 20:31:19;;;;;;;;;;;;;;;;;;10295540;28;19933;-67
2021/08/15 20:36:17;;;;;;;;;;;;;;;;;;10289272;28;19921;-67
2021/08/15 20:41:14;;;;;;;;;;;;;;;;;;10290187;28;19925;-67
2021/08/15 20:46:11;;;;;;;;;;;;;;;;;;10273094;28;19921;-66
2021/08/15 20:51:12;;;;;;;;;;;;;;;;;;10282865;28;19978;-66
2021/08/15 20:56:09;;;;;;;;;;;;;;;;;;10302815;28;19924;-66
2021/08/15 21:01:06;;;;;;;;;;;;;;;;;;10298520;22;19932;-64
2021/08/15 21:06:04;;;;;;;;;;;;;;;;;;10244698;28;19933;-65
2021/08/15 21:11:04;;;;;;;;;;;;;;;;;;10236617;28;19929;-65
2021/08/15 21:16:01;;;;;;;;;;;;;;;;;;10235254;28;20001;-65
2021/08/15 21:20:58;;;;;;;;;;;;;;;;;;10176947;28;20471;-65
2021/08/15 21:25:55;;;;;;;;;;;;;;;;;;10195056;28;19937;-65
2021/08/15 21:30:53;;;;;;;;;;;;;;;;;;10239004;28;19965;-65
2021/08/15 21:35:50;;;;;;;;;;;;;;;;;;10249250;28;19914;-65
2021/08/15 21:40:48;;;;;;;;;;;;;;;;;;10238347;28;20280;-65
2021/08/15 21:45:46;;;;;;;;;;;;;;;;;;10227786;28;20041;-65
2021/08/15 21:50:43;;;;;;;;;;;;;;;;;;10249727;28;20091;-65
2021/08/15 21:55:40;;;;;;;;;;;;;;;;;;10236347;28;20079;-64
2021/08/15 22:00:38;;;;;;;;;;;;;;;;;;10236384;28;19967;-65
2021/08/15 22:05:36;;;;;;;;;;;;;;;;;;10195181;28;19994;-65
2021/08/15 22:10:33;;;;;;;;;;;;;;;;;;10238097;28;20331;-65
2021/08/15 22:15:31;;;;;;;;;;;;;;;;;;10238529;28;19921;-65
2021/08/15 22:20:28;;;;;;;;;;;;;;;;;;10186370;28;19988;-65
2021/08/15 22:25:26;;;;;;;;;;;;;;;;;;10229702;28;20072;-65
2021/08/15 22:30:23;;;;;;;;;;;;;;;;;;10239390;28;19980;-63
2021/08/15 22:35:21;;;;;;;;;;;;;;;;;;10215458;28;19922;-64
2021/08/15 22:40:18;;;;;;;;;;;;;;;;;;10216421;28;20020;-63
2021/08/15 22:45:15;;;;;;;;;;;;;;;;;;10242333;28;19928;-63
2021/08/15 22:50:13;;;;;;;;;;;;;;;;;;10229139;28;19917;-63
2021/08/15 22:55:10;;;;;;;;;;;;;;;;;;10221057;28;19925;-63
2021/08/15 23:00:08;;;;;;;;;;;;;;;;;;10221638;28;20060;-63
2021/08/15 23:05:05;;;;;;;;;;;;;;;;;;10184919;28;20081;-63
2021/08/15 23:10:02;;;;;;;;;;;;;;;;;;10196502;28;19918;-63
2021/08/15 23:15:00;;;;;;;;;;;;;;;;;;10240683;28;19980;-63
2021/08/15 23:19:57;;;;;;;;;;;;;;;;;;10189815;28;19917;-64
2021/08/15 23:24:54;;;;;;;;;;;;;;;;;;10180591;28;19929;-63
2021/08/15 23:29:51;;;;;;;;;;;;;;;;;;10221640;28;20045;-63
2021/08/15 23:34:49;;;;;;;;;;;;;;;;;;10186086;28;19977;-64
2021/08/15 23:39:46;;;;;;;;;;;;;;;;;;10192719;28;19918;-64
2021/08/15 23:44:43;;;;;;;;;;;;;;;;;;10228466;28;20013;-64
2021/08/15 23:49:41;;;;;;;;;;;;;;;;;;10199447;28;20008;-64
2021/08/15 23:54:38;;;;;;;;;;;;;;;;;;10191134;28;20315;-63
2021/08/15 23:59:35;;;;;;;;;;;;;;;;;;10221113;28;21809;-63
